sensor_id;sensor_type;location;lat;lon;timestamp;temperature;humidity
40622;DHT22;26324;52.040;11.528;2022-08-14T00:00:59;21.10;69.80
40622;DHT22;26324;52.040;11.528;2022-08-14T00:03:27;21.00;70.70
40622;DHT22;26324;52.040;11.528;2022-08-14T00:05:54;21.10;71.00
40622;DHT22;26324;52.040;11.528;2022-08-14T00:08:19;21.10;70.50
40622;DHT22;26324;52.040;11.528;2022-08-14T00:10:45;21.00;70.30
40622;DHT22;26324;52.040;11.528;2022-08-14T00:13:11;21.00;70.80
40622;DHT22;26324;52.040;11.528;2022-08-14T00:15:40;21.00;70.60
40622;DHT22;26324;52.040;11.528;2022-08-14T00:18:08;21.00;70.90
40622;DHT22;26324;52.040;11.528;2022-08-14T00:20:37;21.10;70.80
40622;DHT22;26324;52.040;11.528;2022-08-14T00:23:05;21.00;70.20
40622;DHT22;26324;52.040;11.528;2022-08-14T00:25:31;21.00;70.60
40622;DHT22;26324;52.040;11.528;2022-08-14T00:27:57;21.00;70.80
40622;DHT22;26324;52.040;11.528;2022-08-14T00:30:22;21.00;70.50
40622;DHT22;26324;52.040;11.528;2022-08-14T00:32:48;20.90;70.50
40622;DHT22;26324;52.040;11.528;2022-08-14T00:35:14;20.90;70.70
40622;DHT22;26324;52.040;11.528;2022-08-14T00:37:41;20.90;70.60
40622;DHT22;26324;52.040;11.528;2022-08-14T00:40:09;20.80;70.90
40622;DHT22;26324;52.040;11.528;2022-08-14T00:42:34;20.70;71.00
40622;DHT22;26324;52.040;11.528;2022-08-14T00:45:00;20.70;71.50
40622;DHT22;26324;52.040;11.528;2022-08-14T00:47:26;20.60;71.80
40622;DHT22;26324;52.040;11.528;2022-08-14T00:49:53;20.50;72.40
40622;DHT22;26324;52.040;11.528;2022-08-14T00:52:21;20.40;73.10
40622;DHT22;26324;52.040;11.528;2022-08-14T00:54:49;20.30;73.80
40622;DHT22;26324;52.040;11.528;2022-08-14T00:57:18;20.50;73.50
40622;DHT22;26324;52.040;11.528;2022-08-14T00:59:44;20.40;73.20
40622;DHT22;26324;52.040;11.528;2022-08-14T01:02:11;20.40;72.80
40622;DHT22;26324;52.040;11.528;2022-08-14T01:04:37;20.30;72.70
40622;DHT22;26324;52.040;11.528;2022-08-14T01:07:03;20.20;73.00
40622;DHT22;26324;52.040;11.528;2022-08-14T01:09:29;20.20;73.10
40622;DHT22;26324;52.040;11.528;2022-08-14T01:11:55;20.20;73.20
40622;DHT22;26324;52.040;11.528;2022-08-14T01:14:21;20.10;73.80
40622;DHT22;26324;52.040;11.528;2022-08-14T01:16:47;20.20;73.50
40622;DHT22;26324;52.040;11.528;2022-08-14T01:19:13;20.10;73.50
40622;DHT22;26324;52.040;11.528;2022-08-14T01:21:58;20.10;73.40
40622;DHT22;26324;52.040;11.528;2022-08-14T01:24:24;20.10;73.40
40622;DHT22;26324;52.040;11.528;2022-08-14T01:26:50;20.00;73.10
40622;DHT22;26324;52.040;11.528;2022-08-14T01:29:18;20.00;73.30
40622;DHT22;26324;52.040;11.528;2022-08-14T01:31:44;20.00;73.40
40622;DHT22;26324;52.040;11.528;2022-08-14T01:34:19;20.00;73.80
40622;DHT22;26324;52.040;11.528;2022-08-14T01:36:48;19.90;74.30
40622;DHT22;26324;52.040;11.528;2022-08-14T01:39:16;19.90;73.90
40622;DHT22;26324;52.040;11.528;2022-08-14T01:41:44;19.90;74.00
40622;DHT22;26324;52.040;11.528;2022-08-14T01:44:13;19.90;73.90
40622;DHT22;26324;52.040;11.528;2022-08-14T01:46:42;19.80;74.10
40622;DHT22;26324;52.040;11.528;2022-08-14T01:49:13;19.70;74.30
40622;DHT22;26324;52.040;11.528;2022-08-14T01:51:42;19.70;74.80
40622;DHT22;26324;52.040;11.528;2022-08-14T01:54:14;19.60;75.10
40622;DHT22;26324;52.040;11.528;2022-08-14T01:56:42;19.60;75.50
40622;DHT22;26324;52.040;11.528;2022-08-14T01:59:21;19.60;75.70
40622;DHT22;26324;52.040;11.528;2022-08-14T02:01:50;19.60;75.40
40622;DHT22;26324;52.040;11.528;2022-08-14T02:04:17;19.60;75.80
40622;DHT22;26324;52.040;11.528;2022-08-14T02:06:45;19.60;76.00
40622;DHT22;26324;52.040;11.528;2022-08-14T02:09:11;19.60;75.50
40622;DHT22;26324;52.040;11.528;2022-08-14T02:11:36;19.60;76.10
40622;DHT22;26324;52.040;11.528;2022-08-14T02:14:07;19.60;76.60
40622;DHT22;26324;52.040;11.528;2022-08-14T02:16:53;19.70;75.50
40622;DHT22;26324;52.040;11.528;2022-08-14T02:19:22;19.60;75.20
40622;DHT22;26324;52.040;11.528;2022-08-14T02:21:49;19.60;75.40
40622;DHT22;26324;52.040;11.528;2022-08-14T02:24:16;19.60;75.50
40622;DHT22;26324;52.040;11.528;2022-08-14T02:26:43;19.60;75.60
40622;DHT22;26324;52.040;11.528;2022-08-14T02:29:16;19.60;75.50
40622;DHT22;26324;52.040;11.528;2022-08-14T02:31:47;19.60;75.80
40622;DHT22;26324;52.040;11.528;2022-08-14T02:34:15;19.70;75.40
40622;DHT22;26324;52.040;11.528;2022-08-14T02:36:45;19.60;75.40
40622;DHT22;26324;52.040;11.528;2022-08-14T02:39:12;19.60;75.50
40622;DHT22;26324;52.040;11.528;2022-08-14T02:41:39;19.60;76.30
40622;DHT22;26324;52.040;11.528;2022-08-14T02:44:06;19.70;76.40
40622;DHT22;26324;52.040;11.528;2022-08-14T02:46:32;19.70;76.90
40622;DHT22;26324;52.040;11.528;2022-08-14T02:48:58;19.80;77.10
40622;DHT22;26324;52.040;11.528;2022-08-14T02:51:25;19.80;76.00
40622;DHT22;26324;52.040;11.528;2022-08-14T02:53:51;19.80;75.70
40622;DHT22;26324;52.040;11.528;2022-08-14T02:56:18;19.80;76.20
40622;DHT22;26324;52.040;11.528;2022-08-14T02:58:47;19.90;75.90
40622;DHT22;26324;52.040;11.528;2022-08-14T03:01:16;19.90;75.70
40622;DHT22;26324;52.040;11.528;2022-08-14T03:03:42;19.90;75.80
40622;DHT22;26324;52.040;11.528;2022-08-14T03:06:09;19.90;75.90
40622;DHT22;26324;52.040;11.528;2022-08-14T03:08:37;19.90;76.10
40622;DHT22;26324;52.040;11.528;2022-08-14T03:11:04;19.90;75.80
40622;DHT22;26324;52.040;11.528;2022-08-14T03:13:32;19.90;75.90
40622;DHT22;26324;52.040;11.528;2022-08-14T03:16:01;19.90;76.00
40622;DHT22;26324;52.040;11.528;2022-08-14T03:18:27;19.80;76.20
40622;DHT22;26324;52.040;11.528;2022-08-14T03:20:53;19.90;75.50
40622;DHT22;26324;52.040;11.528;2022-08-14T03:23:19;19.80;75.20
40622;DHT22;26324;52.040;11.528;2022-08-14T03:25:46;19.80;75.50
40622;DHT22;26324;52.040;11.528;2022-08-14T03:28:13;19.60;75.40
40622;DHT22;26324;52.040;11.528;2022-08-14T03:30:38;19.60;76.00
40622;DHT22;26324;52.040;11.528;2022-08-14T03:33:05;19.60;76.40
40622;DHT22;26324;52.040;11.528;2022-08-14T03:35:31;19.50;76.60
40622;DHT22;26324;52.040;11.528;2022-08-14T03:38:05;19.60;76.90
40622;DHT22;26324;52.040;11.528;2022-08-14T03:40:33;19.60;76.70
40622;DHT22;26324;52.040;11.528;2022-08-14T03:42:58;19.60;76.60
40622;DHT22;26324;52.040;11.528;2022-08-14T03:45:24;19.60;76.80
40622;DHT22;26324;52.040;11.528;2022-08-14T03:47:50;19.60;77.20
40622;DHT22;26324;52.040;11.528;2022-08-14T03:50:15;19.60;77.30
40622;DHT22;26324;52.040;11.528;2022-08-14T03:52:41;19.50;77.10
40622;DHT22;26324;52.040;11.528;2022-08-14T03:55:11;19.50;77.30
40622;DHT22;26324;52.040;11.528;2022-08-14T03:57:38;19.40;77.70
40622;DHT22;26324;52.040;11.528;2022-08-14T04:00:08;19.40;77.90
40622;DHT22;26324;52.040;11.528;2022-08-14T04:02:39;19.40;78.00
40622;DHT22;26324;52.040;11.528;2022-08-14T04:05:06;19.30;78.30
40622;DHT22;26324;52.040;11.528;2022-08-14T04:07:33;19.30;78.50
40622;DHT22;26324;52.040;11.528;2022-08-14T04:09:59;19.40;78.30
40622;DHT22;26324;52.040;11.528;2022-08-14T04:12:25;19.30;78.00
40622;DHT22;26324;52.040;11.528;2022-08-14T04:14:50;19.30;78.20
40622;DHT22;26324;52.040;11.528;2022-08-14T04:17:17;19.10;78.20
40622;DHT22;26324;52.040;11.528;2022-08-14T04:19:43;19.10;78.60
40622;DHT22;26324;52.040;11.528;2022-08-14T04:22:10;19.10;78.60
40622;DHT22;26324;52.040;11.528;2022-08-14T04:24:35;19.00;78.90
40622;DHT22;26324;52.040;11.528;2022-08-14T04:27:01;19.10;78.90
40622;DHT22;26324;52.040;11.528;2022-08-14T04:29:26;19.10;79.00
40622;DHT22;26324;52.040;11.528;2022-08-14T04:31:52;19.00;79.20
40622;DHT22;26324;52.040;11.528;2022-08-14T04:34:18;19.10;79.30
40622;DHT22;26324;52.040;11.528;2022-08-14T04:36:43;19.10;79.40
40622;DHT22;26324;52.040;11.528;2022-08-14T04:39:27;19.10;79.50
40622;DHT22;26324;52.040;11.528;2022-08-14T04:42:11;19.30;79.60
40622;DHT22;26324;52.040;11.528;2022-08-14T04:44:55;19.40;79.60
40622;DHT22;26324;52.040;11.528;2022-08-14T04:47:20;19.50;79.50
40622;DHT22;26324;52.040;11.528;2022-08-14T04:50:05;19.60;79.40
40622;DHT22;26324;52.040;11.528;2022-08-14T04:52:30;19.60;79.30
40622;DHT22;26324;52.040;11.528;2022-08-14T04:54:56;19.60;79.50
40622;DHT22;26324;52.040;11.528;2022-08-14T04:57:22;19.70;79.90
40622;DHT22;26324;52.040;11.528;2022-08-14T04:59:49;19.80;80.20
40622;DHT22;26324;52.040;11.528;2022-08-14T05:02:17;19.90;80.30
40622;DHT22;26324;52.040;11.528;2022-08-14T05:04:42;20.00;80.80
40622;DHT22;26324;52.040;11.528;2022-08-14T05:07:08;20.00;80.90
40622;DHT22;26324;52.040;11.528;2022-08-14T05:09:33;20.10;80.90
40622;DHT22;26324;52.040;11.528;2022-08-14T05:11:59;20.10;80.80
40622;DHT22;26324;52.040;11.528;2022-08-14T05:14:25;20.30;80.30
40622;DHT22;26324;52.040;11.528;2022-08-14T05:16:52;20.40;79.70
40622;DHT22;26324;52.040;11.528;2022-08-14T05:19:18;20.50;80.00
40622;DHT22;26324;52.040;11.528;2022-08-14T05:21:43;20.60;80.00
40622;DHT22;26324;52.040;11.528;2022-08-14T05:24:11;20.60;79.80
40622;DHT22;26324;52.040;11.528;2022-08-14T05:26:38;20.70;79.60
40622;DHT22;26324;52.040;11.528;2022-08-14T05:29:09;20.80;78.90
40622;DHT22;26324;52.040;11.528;2022-08-14T05:31:35;20.90;78.20
40622;DHT22;26324;52.040;11.528;2022-08-14T05:34:05;21.00;78.60
40622;DHT22;26324;52.040;11.528;2022-08-14T05:36:33;21.10;78.50
40622;DHT22;26324;52.040;11.528;2022-08-14T05:38:59;21.10;78.60
40622;DHT22;26324;52.040;11.528;2022-08-14T05:41:25;21.20;78.40
40622;DHT22;26324;52.040;11.528;2022-08-14T05:43:51;21.20;77.90
40622;DHT22;26324;52.040;11.528;2022-08-14T05:46:18;21.30;77.70
40622;DHT22;26324;52.040;11.528;2022-08-14T05:48:53;21.30;77.40
40622;DHT22;26324;52.040;11.528;2022-08-14T05:51:20;21.30;77.50
40622;DHT22;26324;52.040;11.528;2022-08-14T05:53:46;21.40;77.50
40622;DHT22;26324;52.040;11.528;2022-08-14T05:56:11;21.40;77.30
40622;DHT22;26324;52.040;11.528;2022-08-14T05:58:37;21.50;77.20
40622;DHT22;26324;52.040;11.528;2022-08-14T06:01:03;21.50;77.20
40622;DHT22;26324;52.040;11.528;2022-08-14T06:03:28;21.50;76.40
40622;DHT22;26324;52.040;11.528;2022-08-14T06:05:55;21.60;76.60
40622;DHT22;26324;52.040;11.528;2022-08-14T06:08:26;21.60;76.60
40622;DHT22;26324;52.040;11.528;2022-08-14T06:10:54;21.70;76.40
40622;DHT22;26324;52.040;11.528;2022-08-14T06:13:20;21.70;76.10
40622;DHT22;26324;52.040;11.528;2022-08-14T06:15:47;21.80;75.90
40622;DHT22;26324;52.040;11.528;2022-08-14T06:18:14;21.80;75.70
40622;DHT22;26324;52.040;11.528;2022-08-14T06:20:40;21.90;75.00
40622;DHT22;26324;52.040;11.528;2022-08-14T06:23:05;22.00;75.10
40622;DHT22;26324;52.040;11.528;2022-08-14T06:25:31;22.10;74.40
40622;DHT22;26324;52.040;11.528;2022-08-14T06:27:57;22.10;74.60
40622;DHT22;26324;52.040;11.528;2022-08-14T06:30:26;22.40;73.90
40622;DHT22;26324;52.040;11.528;2022-08-14T06:32:52;22.50;73.30
40622;DHT22;26324;52.040;11.528;2022-08-14T06:35:18;22.60;72.70
40622;DHT22;26324;52.040;11.528;2022-08-14T06:37:56;22.70;72.30
40622;DHT22;26324;52.040;11.528;2022-08-14T06:40:23;22.80;71.80
40622;DHT22;26324;52.040;11.528;2022-08-14T06:42:50;22.90;71.40
40622;DHT22;26324;52.040;11.528;2022-08-14T06:45:16;22.80;71.50
40622;DHT22;26324;52.040;11.528;2022-08-14T06:47:43;22.90;71.20
40622;DHT22;26324;52.040;11.528;2022-08-14T06:50:11;23.00;70.80
40622;DHT22;26324;52.040;11.528;2022-08-14T06:52:37;23.10;70.60
40622;DHT22;26324;52.040;11.528;2022-08-14T06:55:05;23.10;70.80
40622;DHT22;26324;52.040;11.528;2022-08-14T06:57:35;23.30;69.90
40622;DHT22;26324;52.040;11.528;2022-08-14T07:00:04;23.50;69.10
40622;DHT22;26324;52.040;11.528;2022-08-14T07:02:31;23.70;68.50
40622;DHT22;26324;52.040;11.528;2022-08-14T07:05:15;23.90;68.00
40622;DHT22;26324;52.040;11.528;2022-08-14T07:07:59;24.20;67.00
40622;DHT22;26324;52.040;11.528;2022-08-14T07:10:25;24.30;66.60
40622;DHT22;26324;52.040;11.528;2022-08-14T07:12:50;24.30;66.90
40622;DHT22;26324;52.040;11.528;2022-08-14T07:15:17;24.40;66.40
40622;DHT22;26324;52.040;11.528;2022-08-14T07:17:44;24.60;65.90
40622;DHT22;26324;52.040;11.528;2022-08-14T07:20:10;24.60;65.70
40622;DHT22;26324;52.040;11.528;2022-08-14T07:22:36;24.50;65.30
40622;DHT22;26324;52.040;11.528;2022-08-14T07:25:01;24.60;65.50
40622;DHT22;26324;52.040;11.528;2022-08-14T07:27:26;24.90;64.80
40622;DHT22;26324;52.040;11.528;2022-08-14T07:29:52;25.00;64.00
40622;DHT22;26324;52.040;11.528;2022-08-14T07:32:18;25.10;63.60
40622;DHT22;26324;52.040;11.528;2022-08-14T07:34:43;25.30;62.70
40622;DHT22;26324;52.040;11.528;2022-08-14T07:37:09;25.40;62.30
40622;DHT22;26324;52.040;11.528;2022-08-14T07:39:35;25.50;61.80
40622;DHT22;26324;52.040;11.528;2022-08-14T07:42:01;25.40;62.40
40622;DHT22;26324;52.040;11.528;2022-08-14T07:44:26;25.50;61.90
40622;DHT22;26324;52.040;11.528;2022-08-14T07:46:52;25.70;61.80
40622;DHT22;26324;52.040;11.528;2022-08-14T07:49:17;25.70;61.30
40622;DHT22;26324;52.040;11.528;2022-08-14T07:51:44;25.90;61.30
40622;DHT22;26324;52.040;11.528;2022-08-14T07:54:10;25.70;61.50
40622;DHT22;26324;52.040;11.528;2022-08-14T07:56:36;25.70;61.40
40622;DHT22;26324;52.040;11.528;2022-08-14T07:59:01;25.80;61.40
40622;DHT22;26324;52.040;11.528;2022-08-14T08:01:27;26.10;60.20
40622;DHT22;26324;52.040;11.528;2022-08-14T08:03:55;26.30;59.60
40622;DHT22;26324;52.040;11.528;2022-08-14T08:06:23;26.50;59.70
40622;DHT22;26324;52.040;11.528;2022-08-14T08:08:52;26.70;59.00
40622;DHT22;26324;52.040;11.528;2022-08-14T08:11:19;27.10;58.10
40622;DHT22;26324;52.040;11.528;2022-08-14T08:13:46;27.40;57.20
40622;DHT22;26324;52.040;11.528;2022-08-14T08:16:14;27.70;55.40
40622;DHT22;26324;52.040;11.528;2022-08-14T08:18:40;27.70;55.70
40622;DHT22;26324;52.040;11.528;2022-08-14T08:21:06;27.70;55.40
40622;DHT22;26324;52.040;11.528;2022-08-14T08:23:32;27.90;55.30
40622;DHT22;26324;52.040;11.528;2022-08-14T08:25:58;28.00;55.20
40622;DHT22;26324;52.040;11.528;2022-08-14T08:28:25;28.00;54.40
40622;DHT22;26324;52.040;11.528;2022-08-14T08:30:55;28.10;54.10
40622;DHT22;26324;52.040;11.528;2022-08-14T08:33:23;28.00;54.10
40622;DHT22;26324;52.040;11.528;2022-08-14T08:35:50;27.70;55.10
40622;DHT22;26324;52.040;11.528;2022-08-14T08:38:18;27.80;54.40
40622;DHT22;26324;52.040;11.528;2022-08-14T08:40:46;28.00;54.70
40622;DHT22;26324;52.040;11.528;2022-08-14T08:43:23;28.20;54.50
40622;DHT22;26324;52.040;11.528;2022-08-14T08:48:19;29.00;53.00
40622;DHT22;26324;52.040;11.528;2022-08-14T08:50:45;29.10;51.60
40622;DHT22;26324;52.040;11.528;2022-08-14T08:53:10;29.00;51.20
40622;DHT22;26324;52.040;11.528;2022-08-14T08:55:38;29.00;51.60
40622;DHT22;26324;52.040;11.528;2022-08-14T08:58:13;29.10;51.00
40622;DHT22;26324;52.040;11.528;2022-08-14T09:00:40;28.80;51.50
40622;DHT22;26324;52.040;11.528;2022-08-14T09:03:08;29.00;52.40
40622;DHT22;26324;52.040;11.528;2022-08-14T09:05:36;29.20;50.90
40622;DHT22;26324;52.040;11.528;2022-08-14T09:08:25;29.60;50.00
40622;DHT22;26324;52.040;11.528;2022-08-14T09:10:52;29.80;48.10
40622;DHT22;26324;52.040;11.528;2022-08-14T09:13:19;30.00;49.20
40622;DHT22;26324;52.040;11.528;2022-08-14T09:15:47;29.60;49.10
40622;DHT22;26324;52.040;11.528;2022-08-14T09:18:15;29.40;50.00
40622;DHT22;26324;52.040;11.528;2022-08-14T09:20:43;29.40;50.30
40622;DHT22;26324;52.040;11.528;2022-08-14T09:23:10;29.50;49.80
40622;DHT22;26324;52.040;11.528;2022-08-14T09:25:37;29.60;49.60
40622;DHT22;26324;52.040;11.528;2022-08-14T09:28:04;29.70;48.90
40622;DHT22;26324;52.040;11.528;2022-08-14T09:30:31;30.00;48.30
40622;DHT22;26324;52.040;11.528;2022-08-14T09:35:40;30.00;47.70
40622;DHT22;26324;52.040;11.528;2022-08-14T09:38:26;30.10;47.50
40622;DHT22;26324;52.040;11.528;2022-08-14T09:46:06;30.30;46.90
40622;DHT22;26324;52.040;11.528;2022-08-14T09:48:32;30.50;47.50
40622;DHT22;26324;52.040;11.528;2022-08-14T09:50:59;30.70;46.60
40622;DHT22;26324;52.040;11.528;2022-08-14T09:56:02;30.60;46.80
40622;DHT22;26324;52.040;11.528;2022-08-14T10:01:10;30.60;46.20
40622;DHT22;26324;52.040;11.528;2022-08-14T10:03:37;30.70;45.80
40622;DHT22;26324;52.040;11.528;2022-08-14T10:06:09;30.90;44.20
40622;DHT22;26324;52.040;11.528;2022-08-14T10:08:47;31.10;44.40
40622;DHT22;26324;52.040;11.528;2022-08-14T10:11:18;31.20;43.30
40622;DHT22;26324;52.040;11.528;2022-08-14T10:13:46;31.30;43.70
40622;DHT22;26324;52.040;11.528;2022-08-14T10:16:11;31.40;43.60
40622;DHT22;26324;52.040;11.528;2022-08-14T10:18:39;31.70;42.70
40622;DHT22;26324;52.040;11.528;2022-08-14T10:21:08;32.10;41.30
40622;DHT22;26324;52.040;11.528;2022-08-14T10:23:45;32.20;41.70
40622;DHT22;26324;52.040;11.528;2022-08-14T10:26:19;32.70;40.50
40622;DHT22;26324;52.040;11.528;2022-08-14T10:28:46;32.40;40.50
40622;DHT22;26324;52.040;11.528;2022-08-14T10:31:30;32.10;41.20
40622;DHT22;26324;52.040;11.528;2022-08-14T10:33:58;32.60;40.00
40622;DHT22;26324;52.040;11.528;2022-08-14T10:36:39;33.00;38.80
40622;DHT22;26324;52.040;11.528;2022-08-14T10:39:26;33.30;37.60
40622;DHT22;26324;52.040;11.528;2022-08-14T10:42:13;33.60;37.90
40622;DHT22;26324;52.040;11.528;2022-08-14T10:44:42;33.50;37.50
40622;DHT22;26324;52.040;11.528;2022-08-14T10:47:13;33.50;37.80
40622;DHT22;26324;52.040;11.528;2022-08-14T10:49:41;33.00;38.10
40622;DHT22;26324;52.040;11.528;2022-08-14T10:52:41;33.20;37.50
40622;DHT22;26324;52.040;11.528;2022-08-14T10:57:33;33.50;37.40
40622;DHT22;26324;52.040;11.528;2022-08-14T11:00:12;33.10;37.40
40622;DHT22;26324;52.040;11.528;2022-08-14T11:02:39;32.80;38.00
40622;DHT22;26324;52.040;11.528;2022-08-14T11:05:09;33.00;37.30
40622;DHT22;26324;52.040;11.528;2022-08-14T11:13:04;33.60;36.80
40622;DHT22;26324;52.040;11.528;2022-08-14T11:15:31;33.80;35.70
40622;DHT22;26324;52.040;11.528;2022-08-14T11:17:57;34.10;36.30
40622;DHT22;26324;52.040;11.528;2022-08-14T11:20:24;34.10;33.60
40622;DHT22;26324;52.040;11.528;2022-08-14T11:22:55;34.10;34.70
40622;DHT22;26324;52.040;11.528;2022-08-14T11:25:23;34.00;34.30
40622;DHT22;26324;52.040;11.528;2022-08-14T11:27:54;33.90;34.20
40622;DHT22;26324;52.040;11.528;2022-08-14T11:30:23;34.10;34.00
40622;DHT22;26324;52.040;11.528;2022-08-14T11:32:50;34.30;32.70
40622;DHT22;26324;52.040;11.528;2022-08-14T11:35:21;34.50;33.50
40622;DHT22;26324;52.040;11.528;2022-08-14T11:40:17;33.60;33.60
40622;DHT22;26324;52.040;11.528;2022-08-14T11:42:48;33.80;33.10
40622;DHT22;26324;52.040;11.528;2022-08-14T11:45:14;34.10;33.50
40622;DHT22;26324;52.040;11.528;2022-08-14T11:47:40;34.50;32.90
40622;DHT22;26324;52.040;11.528;2022-08-14T11:50:17;34.80;32.40
40622;DHT22;26324;52.040;11.528;2022-08-14T11:52:44;35.00;31.50
40622;DHT22;26324;52.040;11.528;2022-08-14T11:55:12;35.10;31.30
40622;DHT22;26324;52.040;11.528;2022-08-14T11:57:39;35.80;30.00
40622;DHT22;26324;52.040;11.528;2022-08-14T12:00:07;36.30;29.50
40622;DHT22;26324;52.040;11.528;2022-08-14T12:02:34;36.40;29.50
40622;DHT22;26324;52.040;11.528;2022-08-14T12:05:03;35.70;29.90
40622;DHT22;26324;52.040;11.528;2022-08-14T12:07:29;35.60;30.10
40622;DHT22;26324;52.040;11.528;2022-08-14T12:09:56;35.70;29.80
40622;DHT22;26324;52.040;11.528;2022-08-14T12:12:23;35.80;30.20
40622;DHT22;26324;52.040;11.528;2022-08-14T12:17:21;35.70;29.90
40622;DHT22;26324;52.040;11.528;2022-08-14T12:19:48;36.00;30.40
40622;DHT22;26324;52.040;11.528;2022-08-14T12:22:13;36.30;30.00
40622;DHT22;26324;52.040;11.528;2022-08-14T12:24:41;36.60;29.40
40622;DHT22;26324;52.040;11.528;2022-08-14T12:27:10;36.60;28.70
40622;DHT22;26324;52.040;11.528;2022-08-14T12:29:37;36.50;29.20
40622;DHT22;26324;52.040;11.528;2022-08-14T12:32:06;36.60;28.80
40622;DHT22;26324;52.040;11.528;2022-08-14T12:34:33;36.90;28.10
40622;DHT22;26324;52.040;11.528;2022-08-14T12:37:07;37.00;28.90
40622;DHT22;26324;52.040;11.528;2022-08-14T12:39:34;37.00;28.00
40622;DHT22;26324;52.040;11.528;2022-08-14T12:42:01;37.10;28.10
40622;DHT22;26324;52.040;11.528;2022-08-14T12:44:35;36.40;28.70
40622;DHT22;26324;52.040;11.528;2022-08-14T12:47:04;36.60;28.40
40622;DHT22;26324;52.040;11.528;2022-08-14T12:49:30;36.20;29.50
40622;DHT22;26324;52.040;11.528;2022-08-14T12:51:57;36.30;28.80
40622;DHT22;26324;52.040;11.528;2022-08-14T12:54:23;36.40;28.00
40622;DHT22;26324;52.040;11.528;2022-08-14T12:56:49;36.50;28.40
40622;DHT22;26324;52.040;11.528;2022-08-14T12:59:15;37.00;27.30
40622;DHT22;26324;52.040;11.528;2022-08-14T13:01:44;37.50;27.10
40622;DHT22;26324;52.040;11.528;2022-08-14T13:04:10;37.80;26.90
40622;DHT22;26324;52.040;11.528;2022-08-14T13:06:41;38.30;26.80
40622;DHT22;26324;52.040;11.528;2022-08-14T13:09:11;38.50;26.50
40622;DHT22;26324;52.040;11.528;2022-08-14T13:11:44;38.50;26.40
40622;DHT22;26324;52.040;11.528;2022-08-14T13:14:13;38.40;26.90
40622;DHT22;26324;52.040;11.528;2022-08-14T13:16:42;38.60;26.80
40622;DHT22;26324;52.040;11.528;2022-08-14T13:19:14;38.60;26.00
40622;DHT22;26324;52.040;11.528;2022-08-14T13:21:48;38.70;26.10
40622;DHT22;26324;52.040;11.528;2022-08-14T13:24:18;39.00;26.20
40622;DHT22;26324;52.040;11.528;2022-08-14T13:26:49;39.10;26.00
40622;DHT22;26324;52.040;11.528;2022-08-14T13:29:25;39.40;25.20
40622;DHT22;26324;52.040;11.528;2022-08-14T13:31:55;40.00;24.30
40622;DHT22;26324;52.040;11.528;2022-08-14T13:34:26;40.90;22.90
40622;DHT22;26324;52.040;11.528;2022-08-14T13:36:53;41.50;23.50
40622;DHT22;26324;52.040;11.528;2022-08-14T13:39:22;42.00;21.40
40622;DHT22;26324;52.040;11.528;2022-08-14T13:41:49;42.10;21.50
40622;DHT22;26324;52.040;11.528;2022-08-14T13:44:15;42.70;21.50
40622;DHT22;26324;52.040;11.528;2022-08-14T13:46:43;43.40;20.80
40622;DHT22;26324;52.040;11.528;2022-08-14T13:49:10;43.50;20.80
40622;DHT22;26324;52.040;11.528;2022-08-14T13:51:41;44.10;20.30
40622;DHT22;26324;52.040;11.528;2022-08-14T13:54:14;44.10;19.50
40622;DHT22;26324;52.040;11.528;2022-08-14T13:56:40;44.50;19.70
40622;DHT22;26324;52.040;11.528;2022-08-14T13:59:06;44.70;19.10
40622;DHT22;26324;52.040;11.528;2022-08-14T14:01:34;45.20;19.50
40622;DHT22;26324;52.040;11.528;2022-08-14T14:04:02;45.60;18.20
40622;DHT22;26324;52.040;11.528;2022-08-14T14:06:30;45.80;17.60
40622;DHT22;26324;52.040;11.528;2022-08-14T14:08:57;45.90;18.20
40622;DHT22;26324;52.040;11.528;2022-08-14T14:11:24;46.00;18.40
40622;DHT22;26324;52.040;11.528;2022-08-14T14:13:54;45.70;18.10
40622;DHT22;26324;52.040;11.528;2022-08-14T14:16:21;44.30;18.80
40622;DHT22;26324;52.040;11.528;2022-08-14T14:18:53;43.80;20.40
40622;DHT22;26324;52.040;11.528;2022-08-14T14:21:26;44.10;20.20
40622;DHT22;26324;52.040;11.528;2022-08-14T14:23:53;44.70;19.20
40622;DHT22;26324;52.040;11.528;2022-08-14T14:26:20;45.70;18.60
40622;DHT22;26324;52.040;11.528;2022-08-14T14:28:50;46.40;17.60
40622;DHT22;26324;52.040;11.528;2022-08-14T14:31:20;47.10;16.50
40622;DHT22;26324;52.040;11.528;2022-08-14T14:33:50;47.10;16.30
40622;DHT22;26324;52.040;11.528;2022-08-14T14:36:20;45.50;17.20
40622;DHT22;26324;52.040;11.528;2022-08-14T14:38:57;42.20;19.50
40622;DHT22;26324;52.040;11.528;2022-08-14T14:41:25;40.60;21.70
40622;DHT22;26324;52.040;11.528;2022-08-14T14:43:53;40.30;21.70
40622;DHT22;26324;52.040;11.528;2022-08-14T14:46:20;41.40;21.30
40622;DHT22;26324;52.040;11.528;2022-08-14T14:48:47;42.90;20.20
40622;DHT22;26324;52.040;11.528;2022-08-14T14:51:15;43.60;19.40
40622;DHT22;26324;52.040;11.528;2022-08-14T14:53:43;45.10;18.50
40622;DHT22;26324;52.040;11.528;2022-08-14T14:56:09;46.00;17.70
40622;DHT22;26324;52.040;11.528;2022-08-14T14:58:41;46.90;16.50
40622;DHT22;26324;52.040;11.528;2022-08-14T15:01:08;45.60;17.80
40622;DHT22;26324;52.040;11.528;2022-08-14T15:03:35;43.80;19.10
40622;DHT22;26324;52.040;11.528;2022-08-14T15:06:03;42.10;20.50
40622;DHT22;26324;52.040;11.528;2022-08-14T15:08:29;40.80;22.30
40622;DHT22;26324;52.040;11.528;2022-08-14T15:10:56;39.50;23.30
40622;DHT22;26324;52.040;11.528;2022-08-14T15:13:26;38.70;23.90
40622;DHT22;26324;52.040;11.528;2022-08-14T15:15:52;38.70;24.10
40622;DHT22;26324;52.040;11.528;2022-08-14T15:18:24;40.20;24.20
40622;DHT22;26324;52.040;11.528;2022-08-14T15:20:52;42.00;21.60
40622;DHT22;26324;52.040;11.528;2022-08-14T15:23:22;44.00;19.50
40622;DHT22;26324;52.040;11.528;2022-08-14T15:25:48;45.50;17.70
40622;DHT22;26324;52.040;11.528;2022-08-14T15:28:15;46.50;17.70
40622;DHT22;26324;52.040;11.528;2022-08-14T15:30:44;47.00;17.20
40622;DHT22;26324;52.040;11.528;2022-08-14T15:33:10;47.80;15.90
40622;DHT22;26324;52.040;11.528;2022-08-14T15:35:37;47.70;16.10
40622;DHT22;26324;52.040;11.528;2022-08-14T15:38:03;45.80;16.90
40622;DHT22;26324;52.040;11.528;2022-08-14T15:40:40;44.70;17.90
40622;DHT22;26324;52.040;11.528;2022-08-14T15:43:10;42.80;19.20
40622;DHT22;26324;52.040;11.528;2022-08-14T15:45:42;41.20;20.50
40622;DHT22;26324;52.040;11.528;2022-08-14T15:48:08;39.90;22.30
40622;DHT22;26324;52.040;11.528;2022-08-14T15:50:34;39.00;23.10